createdAt,value
2019-04-21T00:00:19.250Z,0.00
2019-04-21T00:01:18.387Z,0.00
2019-04-21T00:02:24.241Z,0.00
2019-04-21T00:03:25.838Z,0.00
2019-04-21T00:04:32.164Z,0.00
2019-04-21T00:05:38.490Z,0.00
2019-04-21T00:06:43.473Z,0.00
2019-04-21T00:07:37.748Z,0.00
2019-04-21T00:08:57.937Z,0.00
2019-04-21T00:09:41.074Z,0.00
2019-04-21T00:10:40.098Z,0.00
2019-04-21T00:11:40.852Z,0.00
2019-04-21T00:12:35.642Z,0.00
2019-04-21T00:13:36.739Z,0.00
2019-04-21T00:14:30.351Z,0.00
2019-04-21T00:15:28.935Z,0.00
2019-04-21T00:16:29.108Z,0.00
2019-04-21T00:17:21.773Z,0.00
2019-04-21T00:18:19.105Z,0.00
2019-04-21T00:19:21.555Z,0.00
2019-04-21T00:20:26.944Z,0.00
2019-04-21T00:21:26.499Z,0.00
2019-04-21T00:22:30.373Z,0.00
2019-04-21T00:23:37.489Z,0.00
2019-04-21T00:24:29.004Z,0.00
2019-04-21T00:25:32.160Z,0.00
2019-04-21T00:26:36.465Z,0.00
2019-04-21T00:27:33.344Z,0.00
2019-04-21T00:28:42.584Z,0.00
2019-04-21T00:30:39.893Z,0.00
2019-04-21T00:31:34.116Z,0.00
2019-04-21T00:32:33.383Z,0.00
2019-04-21T00:33:25.851Z,0.00
2019-04-21T00:34:19.432Z,0.00
2019-04-21T00:35:21.036Z,0.00
2019-04-21T00:36:25.267Z,0.00
2019-04-21T00:37:31.380Z,0.00
2019-04-21T00:38:56.446Z,0.00
2019-04-21T00:39:51.965Z,0.00
2019-04-21T00:40:46.103Z,0.00
2019-04-21T00:41:38.106Z,0.00
2019-04-21T00:42:34.319Z,0.00
2019-04-21T00:43:32.940Z,0.00
2019-04-21T00:44:29.399Z,0.00
2019-04-21T00:45:32.545Z,0.00
2019-04-21T00:46:35.110Z,0.00
2019-04-21T00:47:38.804Z,0.00
2019-04-21T00:48:45.908Z,0.00
2019-04-21T00:49:34.355Z,0.00
2019-04-21T00:50:53.231Z,0.00
2019-04-21T00:51:49.814Z,0.00
2019-04-21T00:52:52.573Z,0.00
2019-04-21T00:53:45.563Z,0.00
2019-04-21T00:54:51.982Z,0.00
2019-04-21T00:55:46.689Z,0.00
2019-04-21T00:56:46.694Z,0.00
2019-04-21T00:57:44.955Z,0.00
2019-04-21T00:58:39.606Z,0.00
2019-04-21T00:59:43.307Z,0.00
2019-04-21T01:00:38.563Z,0.00
2019-04-21T01:01:40.656Z,0.00
2019-04-21T01:02:48.513Z,0.00
2019-04-21T01:03:38.453Z,0.00
2019-04-21T01:04:42.866Z,0.00
2019-04-21T01:05:42.782Z,0.00
2019-04-21T01:06:43.468Z,0.00
2019-04-21T01:07:37.061Z,0.00
2019-04-21T01:08:39.984Z,0.00
2019-04-21T01:09:34.253Z,0.00
2019-04-21T01:10:33.575Z,0.00
2019-04-21T01:11:40.233Z,0.00
2019-04-21T01:12:37.387Z,0.00
2019-04-21T01:13:41.490Z,0.00
2019-04-21T01:14:45.611Z,0.00
2019-04-21T01:15:43.553Z,0.00
2019-04-21T01:16:43.879Z,0.00
2019-04-21T01:17:40.651Z,0.00
2019-04-21T01:18:38.064Z,0.00
2019-04-21T01:19:38.800Z,0.00
2019-04-21T01:20:18.221Z,0.00
2019-04-21T01:21:16.598Z,0.00
2019-04-21T01:22:16.587Z,0.00
2019-04-21T01:23:16.776Z,0.00
2019-04-21T01:24:21.923Z,0.00
2019-04-21T01:25:25.863Z,0.00
2019-04-21T01:26:31.098Z,0.00
2019-04-21T01:27:40.638Z,0.00
2019-04-21T01:28:37.646Z,0.00
2019-04-21T01:29:44.060Z,0.00
2019-04-21T01:30:41.498Z,0.00
2019-04-21T01:31:36.327Z,0.00
2019-04-21T01:32:42.706Z,0.00
2019-04-21T01:33:39.691Z,0.00
2019-04-21T01:34:39.309Z,0.00
2019-04-21T01:35:40.265Z,0.00
2019-04-21T01:36:37.045Z,0.00
2019-04-21T01:37:44.166Z,0.00
2019-04-21T01:38:45.330Z,0.00
2019-04-21T01:39:48.506Z,0.00
2019-04-21T01:40:41.014Z,0.00
2019-04-21T01:41:42.965Z,0.00
2019-04-21T01:42:41.138Z,0.00
2019-04-21T01:43:33.497Z,0.00
2019-04-21T01:44:41.866Z,0.00
2019-04-21T01:45:37.042Z,0.00
2019-04-21T01:46:36.364Z,0.00
2019-04-21T01:47:32.704Z,0.00
2019-04-21T01:48:34.467Z,0.00
2019-04-21T01:49:29.673Z,0.00
2019-04-21T01:50:36.605Z,0.00
2019-04-21T01:51:36.747Z,0.00
2019-04-21T01:52:46.203Z,0.00
2019-04-21T01:53:43.506Z,0.00
2019-04-21T01:54:40.434Z,0.00
2019-04-21T01:55:36.806Z,0.00
2019-04-21T01:56:35.651Z,0.00
2019-04-21T01:57:34.681Z,0.00
2019-04-21T01:58:29.480Z,0.00
2019-04-21T01:59:33.708Z,0.00
2019-04-21T02:00:32.807Z,0.00
2019-04-21T02:01:54.165Z,0.00
2019-04-21T02:02:36.379Z,0.00
2019-04-21T02:04:45.346Z,0.00
2019-04-21T02:05:43.947Z,0.00
2019-04-21T02:06:41.402Z,0.00
2019-04-21T02:07:39.877Z,0.00
2019-04-21T02:08:34.537Z,0.00
2019-04-21T02:09:38.414Z,0.00
2019-04-21T02:10:40.282Z,0.00
2019-04-21T02:11:48.618Z,0.00
2019-04-21T02:12:38.067Z,0.00
2019-04-21T02:13:35.508Z,0.00
2019-04-21T02:14:45.746Z,0.00
2019-04-21T02:15:42.317Z,0.00
2019-04-21T02:16:40.624Z,0.00
2019-04-21T02:17:34.173Z,0.00
2019-04-21T02:18:33.351Z,0.00
2019-04-21T02:19:32.597Z,0.00
2019-04-21T02:20:29.437Z,0.00
2019-04-21T02:21:31.839Z,0.00
2019-04-21T02:22:46.176Z,0.00
2019-04-21T02:24:42.498Z,0.00
2019-04-21T02:25:38.446Z,0.00
2019-04-21T02:26:42.898Z,0.00
2019-04-21T02:27:36.477Z,0.00
2019-04-21T02:28:42.821Z,0.00
2019-04-21T02:29:41.558Z,0.00
2019-04-21T02:31:45.332Z,0.00
2019-04-21T02:32:49.547Z,0.00
2019-04-21T02:33:57.489Z,0.00
2019-04-21T02:34:49.142Z,0.00
2019-04-21T02:36:15.567Z,0.00
2019-04-21T02:36:52.978Z,0.00
2019-04-21T02:37:54.876Z,0.00
2019-04-21T02:39:48.973Z,0.00
2019-04-21T02:41:51.208Z,0.00
2019-04-21T02:43:07.519Z,0.00
2019-04-21T02:43:52.456Z,0.00
2019-04-21T02:44:52.174Z,0.00
2019-04-21T02:45:47.115Z,0.00
2019-04-21T02:46:42.132Z,0.00
2019-04-21T02:48:11.196Z,0.00
2019-04-21T02:49:56.014Z,0.00
2019-04-21T02:53:03.571Z,0.00
2019-04-21T02:55:56.564Z,0.00
2019-04-21T02:56:59.107Z,0.00
2019-04-21T02:57:51.903Z,0.00
2019-04-21T02:58:57.006Z,0.00
2019-04-21T02:59:55.822Z,0.00
2019-04-21T03:00:44.447Z,0.00
2019-04-21T03:02:52.566Z,0.00
2019-04-21T03:03:49.186Z,0.00
2019-04-21T03:05:01.718Z,0.00
2019-04-21T03:06:59.935Z,0.00
2019-04-21T03:07:55.407Z,0.00
2019-04-21T03:08:56.687Z,0.00
2019-04-21T03:09:44.485Z,0.00
2019-04-21T03:11:52.311Z,0.00
2019-04-21T03:12:53.034Z,0.00
2019-04-21T03:13:46.979Z,0.00
2019-04-21T03:14:59.569Z,0.00
2019-04-21T03:15:53.221Z,0.00
2019-04-21T03:16:49.328Z,0.00
2019-04-21T03:17:49.928Z,0.00
2019-04-21T03:18:54.243Z,0.00
2019-04-21T03:19:59.869Z,0.00
2019-04-21T03:20:42.127Z,0.00
2019-04-21T03:21:48.347Z,0.00
2019-04-21T03:23:58.346Z,0.00
2019-04-21T03:25:20.483Z,0.00
2019-04-21T03:25:53.443Z,0.00
2019-04-21T03:31:11.532Z,0.00
2019-04-21T03:35:14.909Z,0.00
2019-04-21T03:36:30.018Z,0.00
2019-04-21T03:37:47.025Z,0.00
2019-04-21T03:38:40.500Z,0.00
2019-04-21T03:39:56.781Z,0.00
2019-04-21T03:40:39.399Z,0.00
2019-04-21T03:42:00.189Z,0.00
2019-04-21T03:44:08.023Z,0.00
2019-04-21T03:44:45.714Z,0.00
2019-04-21T03:45:42.298Z,0.00
2019-04-21T03:46:47.743Z,0.00
2019-04-21T03:47:43.479Z,0.00
2019-04-21T03:49:04.742Z,0.00
2019-04-21T03:50:47.263Z,0.00
2019-04-21T03:51:45.805Z,0.00
2019-04-21T03:55:01.565Z,4.00
2019-04-21T03:55:53.165Z,0.00
2019-04-21T03:57:06.032Z,4.00
2019-04-21T03:59:52.341Z,4.00
2019-04-21T04:01:50.643Z,4.00
2019-04-21T04:02:55.269Z,4.00
2019-04-21T04:04:44.910Z,8.00
2019-04-21T04:05:59.669Z,8.00
2019-04-21T04:08:57.533Z,12.00
2019-04-21T04:10:58.708Z,16.00
2019-04-21T04:11:58.449Z,20.00
2019-04-21T04:14:20.351Z,28.00
2019-04-21T04:14:44.186Z,32.00
2019-04-21T04:17:40.796Z,48.00
2019-04-21T04:20:48.059Z,68.00
2019-04-21T04:22:09.162Z,80.00
2019-04-21T04:22:49.681Z,88.00
2019-04-21T04:25:03.479Z,112.00
2019-04-21T04:25:53.657Z,124.00
2019-04-21T04:26:45.508Z,136.00
2019-04-21T04:28:02.147Z,156.00
2019-04-21T04:29:59.334Z,188.00
2019-04-21T04:30:45.959Z,208.00
2019-04-21T04:32:59.088Z,244.00
2019-04-21T04:34:09.875Z,264.00
2019-04-21T04:34:49.933Z,288.00
2019-04-21T04:36:58.447Z,336.00
2019-04-21T04:38:56.309Z,388.00
2019-04-21T04:39:48.494Z,412.00
2019-04-21T04:40:51.246Z,444.00
2019-04-21T04:41:56.830Z,472.00
2019-04-21T04:43:44.633Z,540.00
2019-04-21T04:45:48.201Z,612.00
2019-04-21T04:48:57.309Z,732.00
2019-04-21T04:50:50.057Z,820.00
2019-04-21T04:51:56.718Z,860.00
2019-04-21T04:53:43.951Z,952.00
2019-04-21T04:56:48.201Z,1104.00
2019-04-21T04:57:55.029Z,1160.00
2019-04-21T04:59:18.619Z,1212.00
2019-04-21T05:00:52.130Z,1328.00
2019-04-21T05:01:53.329Z,1388.00
2019-04-21T05:02:40.307Z,1452.00
2019-04-21T05:03:50.976Z,1512.00
2019-04-21T05:05:48.816Z,1644.00
2019-04-21T05:07:52.333Z,1792.00
2019-04-21T05:09:47.105Z,2116.00
2019-04-21T05:11:07.713Z,2788.00
2019-04-21T05:12:48.130Z,3328.00
2019-04-21T05:13:51.450Z,3412.00
2019-04-21T05:14:46.162Z,3760.00
2019-04-21T05:15:42.616Z,3636.00
2019-04-21T05:17:43.290Z,4264.00
2019-04-21T05:18:53.112Z,4948.00
2019-04-21T05:20:03.547Z,5892.00
2019-04-21T05:20:41.891Z,6148.00
2019-04-21T05:21:59.532Z,5084.00
2019-04-21T05:22:53.089Z,5492.00
2019-04-21T05:23:38.359Z,6104.00
2019-04-21T05:24:33.266Z,6428.00
2019-04-21T05:25:27.768Z,6804.00
2019-04-21T05:26:33.368Z,6936.00
2019-04-21T05:27:32.085Z,8008.00
2019-04-21T05:28:30.195Z,10912.00
2019-04-21T05:29:36.388Z,12064.00
2019-04-21T05:30:43.413Z,12768.00
2019-04-21T05:31:43.056Z,13408.00
2019-04-21T05:32:42.774Z,13088.00
2019-04-21T05:33:38.398Z,13280.00
2019-04-21T05:34:42.972Z,15520.00
2019-04-21T05:35:32.188Z,19872.00
2019-04-21T05:36:40.797Z,21504.00
2019-04-21T05:37:39.798Z,22272.00
2019-04-21T05:38:34.695Z,23008.00
2019-04-21T05:39:33.645Z,23360.00
2019-04-21T05:40:26.450Z,24160.00
2019-04-21T05:41:26.557Z,24864.00
2019-04-21T05:42:30.357Z,25152.00
2019-04-21T05:43:39.117Z,26016.00
2019-04-21T05:44:41.869Z,28960.00
2019-04-21T05:45:53.041Z,27808.00
2019-04-21T05:46:40.783Z,27488.00
2019-04-21T05:47:41.646Z,27808.00
2019-04-21T05:49:34.140Z,31232.00
2019-04-21T05:50:35.047Z,32224.00
2019-04-21T05:51:30.630Z,32416.00
2019-04-21T05:52:26.450Z,33248.00
2019-04-21T05:53:38.660Z,34720.00
2019-04-21T05:54:45.651Z,35712.00
2019-04-21T05:56:37.970Z,36992.00
2019-04-21T05:57:33.459Z,37568.00
2019-04-21T05:58:40.962Z,39040.00
2019-04-21T05:59:40.364Z,39904.00
2019-04-21T06:00:59.290Z,39744.00
2019-04-21T06:01:37.729Z,38272.00
2019-04-21T06:02:36.557Z,38752.00
2019-04-21T06:05:02.072Z,39520.00
2019-04-21T06:05:58.461Z,40736.00
2019-04-21T06:06:39.203Z,41344.00
2019-04-21T06:07:38.237Z,44256.00
2019-04-21T06:08:38.972Z,45504.00
2019-04-21T06:09:45.425Z,45568.00
2019-04-21T06:10:41.934Z,45664.00
2019-04-21T06:11:36.369Z,47392.00
2019-04-21T06:12:44.904Z,47168.00
2019-04-21T06:13:46.444Z,48128.00
2019-04-21T06:14:36.723Z,48640.00
2019-04-21T06:15:48.416Z,46176.00
2019-04-21T06:16:43.604Z,46688.00
2019-04-21T06:17:42.852Z,44928.00
2019-04-21T06:18:44.940Z,48512.00
2019-04-21T06:19:43.195Z,49792.00
2019-04-21T06:20:38.843Z,48224.00
2019-04-21T06:21:36.005Z,47680.00
2019-04-21T06:22:36.111Z,50080.00
2019-04-21T06:23:36.019Z,50560.00
2019-04-21T06:24:42.249Z,51680.00
2019-04-21T06:27:19.461Z,52736.00
2019-04-21T06:27:55.713Z,53152.00
2019-04-21T06:28:41.676Z,52320.00
2019-04-21T06:29:36.192Z,52640.00
2019-04-21T06:30:39.206Z,52800.00
2019-04-21T06:32:07.956Z,54304.00
2019-04-21T06:32:48.395Z,53760.00
2019-04-21T06:33:41.232Z,55520.00
2019-04-21T06:34:53.158Z,56448.00
2019-04-21T06:35:48.465Z,55136.00
2019-04-21T06:36:45.162Z,58176.00
2019-04-21T06:37:43.278Z,55520.00
2019-04-21T06:38:43.393Z,55872.00
2019-04-21T06:40:43.869Z,57696.00
2019-04-21T06:41:35.352Z,57696.00
2019-04-21T06:42:43.221Z,58432.00
2019-04-21T06:43:40.188Z,58592.00
2019-04-21T06:44:46.224Z,58624.00
2019-04-21T06:45:43.638Z,59584.00
2019-04-21T06:48:40.861Z,64512.00
2019-04-21T06:49:35.407Z,63584.00
2019-04-21T06:50:40.058Z,63456.00
2019-04-21T06:51:38.964Z,61888.00
2019-04-21T06:53:48.670Z,58944.00
2019-04-21T06:54:44.381Z,61120.00
2019-04-21T06:55:34.089Z,61952.00
2019-04-21T06:58:35.902Z,61568.00
2019-04-21T06:59:34.111Z,63936.00
2019-04-21T07:00:38.479Z,66592.00
2019-04-21T07:02:42.273Z,69408.00
2019-04-21T07:03:40.487Z,68640.00
2019-04-21T07:04:39.529Z,68992.00
2019-04-21T07:05:40.940Z,71456.00
2019-04-21T07:06:45.608Z,74784.00
2019-04-21T07:07:41.872Z,71808.00
2019-04-21T07:08:44.661Z,70272.00
2019-04-21T07:09:36.710Z,72288.00
2019-04-21T07:10:35.136Z,72320.00
2019-04-21T07:11:33.161Z,74112.00
2019-04-21T07:12:34.308Z,74944.00
2019-04-21T07:13:30.967Z,73536.00
2019-04-21T07:14:37.987Z,72064.00
2019-04-21T07:15:41.917Z,71872.00
2019-04-21T07:16:41.535Z,74784.00
2019-04-21T07:17:32.612Z,74720.00
2019-04-21T07:18:41.526Z,74816.00
2019-04-21T07:19:41.222Z,76544.00
2019-04-21T07:20:36.606Z,75328.00
2019-04-21T07:21:33.846Z,75104.00
2019-04-21T07:22:37.633Z,73632.00
2019-04-21T07:23:39.992Z,72672.00
2019-04-21T07:24:41.728Z,74688.00
2019-04-21T07:25:40.861Z,77920.00
2019-04-21T07:26:38.661Z,76512.00
2019-04-21T07:27:35.124Z,76416.00
2019-04-21T07:28:39.870Z,76096.00
2019-04-21T07:29:39.586Z,78272.00
2019-04-21T07:30:51.813Z,78400.00
2019-04-21T07:31:39.901Z,74400.00
2019-04-21T07:32:33.680Z,76928.00
2019-04-21T07:35:51.786Z,78464.00
2019-04-21T07:36:46.440Z,81056.00
2019-04-21T07:37:35.314Z,81664.00
2019-04-21T07:38:34.558Z,79136.00
2019-04-21T07:39:34.024Z,78496.00
2019-04-21T07:40:31.519Z,80384.00
2019-04-21T07:41:24.969Z,86496.00
2019-04-21T07:42:31.027Z,82048.00
2019-04-21T07:43:33.130Z,79872.00
2019-04-21T07:44:30.239Z,82944.00
2019-04-21T07:45:30.682Z,81376.00
2019-04-21T07:46:26.365Z,85696.00
2019-04-21T07:47:37.270Z,82240.00
2019-04-21T07:48:32.251Z,82368.00
2019-04-21T07:49:36.955Z,82624.00
2019-04-21T07:50:31.788Z,79808.00
2019-04-21T07:51:40.429Z,81344.00
2019-04-21T07:52:39.579Z,79872.00
2019-04-21T07:53:48.236Z,83104.00
2019-04-21T07:54:41.459Z,88320.00
2019-04-21T07:56:20.308Z,84608.00
2019-04-21T07:57:35.229Z,83456.00
2019-04-21T07:58:38.702Z,82176.00
2019-04-21T07:59:47.993Z,76864.00
2019-04-21T08:00:35.933Z,79488.00
2019-04-21T08:01:35.505Z,82400.00
2019-04-21T08:02:34.304Z,82784.00
2019-04-21T08:03:33.645Z,80416.00
2019-04-21T08:05:38.610Z,83488.00
2019-04-21T08:06:33.895Z,80864.00
2019-04-21T08:07:41.763Z,84896.00
2019-04-21T08:08:34.250Z,85440.00
2019-04-21T08:09:31.887Z,85696.00
2019-04-21T08:10:36.300Z,83744.00
2019-04-21T08:11:28.265Z,85504.00
2019-04-21T08:12:30.594Z,86112.00
2019-04-21T08:14:13.910Z,86016.00
2019-04-21T08:14:38.460Z,84512.00
2019-04-21T08:15:39.558Z,86272.00
2019-04-21T08:16:31.846Z,88448.00
2019-04-21T08:17:36.614Z,88192.00
2019-04-21T08:18:33.239Z,88512.00
2019-04-21T08:19:31.027Z,89120.00
2019-04-21T08:20:29.128Z,85504.00
2019-04-21T08:21:37.305Z,89984.00
2019-04-21T08:22:32.076Z,87136.00
2019-04-21T08:23:31.866Z,90592.00
2019-04-21T08:24:34.911Z,93280.00
2019-04-21T08:25:36.392Z,102240.00
2019-04-21T08:26:35.942Z,105280.00
2019-04-21T08:27:35.401Z,100160.00
2019-04-21T08:28:31.982Z,92576.00
2019-04-21T08:31:38.383Z,94336.00
2019-04-21T08:32:44.326Z,91072.00
2019-04-21T08:33:38.405Z,89792.00
2019-04-21T08:34:35.441Z,89760.00
2019-04-21T08:35:52.951Z,90560.00
2019-04-21T08:36:44.870Z,89664.00
2019-04-21T08:37:31.399Z,89408.00
2019-04-21T08:38:35.833Z,87520.00
2019-04-21T08:39:42.330Z,85728.00
2019-04-21T08:40:36.677Z,85088.00
2019-04-21T08:41:36.156Z,88864.00
2019-04-21T08:42:30.563Z,87456.00
2019-04-21T08:43:42.648Z,82464.00
2019-04-21T08:44:45.216Z,85952.00
2019-04-21T08:45:36.129Z,86272.00
2019-04-21T08:46:31.128Z,84128.00
2019-04-21T08:47:36.588Z,83744.00
2019-04-21T08:48:37.676Z,85376.00
2019-04-21T08:49:39.213Z,85024.00
2019-04-21T08:50:31.342Z,83232.00
2019-04-21T08:51:33.333Z,83008.00
2019-04-21T08:52:49.052Z,82656.00
2019-04-21T08:53:36.237Z,82624.00
2019-04-21T08:54:38.368Z,82560.00
2019-04-21T08:55:37.185Z,84064.00
2019-04-21T08:56:34.563Z,84128.00
2019-04-21T08:57:48.870Z,82048.00
2019-04-21T08:58:35.669Z,81760.00
2019-04-21T08:59:36.350Z,83904.00
2019-04-21T09:00:36.832Z,67040.00
2019-04-21T09:02:35.298Z,9620.00
2019-04-21T09:03:33.020Z,9068.00
2019-04-21T09:04:29.098Z,8612.00
2019-04-21T09:05:34.294Z,8624.00
2019-04-21T09:06:52.590Z,8500.00
2019-04-21T09:07:41.697Z,8392.00
2019-04-21T09:08:33.150Z,8336.00
2019-04-21T09:09:36.071Z,8224.00
2019-04-21T09:10:31.070Z,8192.00
2019-04-21T09:11:29.499Z,8132.00
2019-04-21T09:12:29.413Z,7992.00
2019-04-21T09:13:32.130Z,7880.00
2019-04-21T09:14:31.016Z,7816.00
2019-04-21T09:15:32.084Z,7660.00
2019-04-21T09:16:31.166Z,7600.00
2019-04-21T09:17:26.290Z,7528.00
2019-04-21T09:18:28.410Z,7476.00
2019-04-21T09:19:40.104Z,7440.00
2019-04-21T09:20:33.215Z,7412.00
2019-04-21T09:21:31.344Z,7312.00
2019-04-21T09:22:31.754Z,7340.00
2019-04-21T09:23:36.458Z,7176.00
2019-04-21T09:24:28.053Z,7172.00
2019-04-21T09:25:38.632Z,7172.00
2019-04-21T09:26:29.339Z,7172.00
2019-04-21T09:27:27.391Z,7180.00
2019-04-21T09:28:28.836Z,7132.00
2019-04-21T09:29:21.760Z,7104.00
2019-04-21T09:30:12.981Z,7144.00
2019-04-21T09:31:12.232Z,7112.00
2019-04-21T09:32:18.427Z,7052.00
2019-04-21T09:33:12.394Z,6984.00
2019-04-21T09:34:20.632Z,6960.00
2019-04-21T09:35:14.808Z,6872.00
2019-04-21T09:36:15.970Z,6828.00
2019-04-21T09:37:24.405Z,6744.00
2019-04-21T09:38:22.675Z,6704.00
2019-04-21T09:39:16.543Z,6672.00
2019-04-21T09:40:14.013Z,6724.00
2019-04-21T09:41:16.128Z,6700.00
2019-04-21T09:42:13.621Z,6568.00
2019-04-21T09:43:13.453Z,6448.00
2019-04-21T09:44:18.731Z,6356.00
2019-04-21T09:45:13.873Z,6248.00
2019-04-21T09:46:11.808Z,6140.00
2019-04-21T09:47:12.588Z,6104.00
2019-04-21T09:48:16.716Z,6064.00
2019-04-21T09:49:16.519Z,6068.00
2019-04-21T09:50:13.459Z,6032.00
2019-04-21T09:51:11.205Z,5952.00
2019-04-21T09:52:18.590Z,5876.00
2019-04-21T09:53:20.434Z,5864.00
2019-04-21T09:54:20.491Z,5780.00
2019-04-21T09:55:17.111Z,5776.00
2019-04-21T09:56:16.712Z,5776.00
2019-04-21T09:57:24.304Z,5792.00
2019-04-21T09:58:21.798Z,5732.00
2019-04-21T09:59:20.662Z,5664.00
2019-04-21T10:00:18.742Z,5600.00
2019-04-21T10:01:20.588Z,5464.00
2019-04-21T10:02:19.237Z,5468.00
2019-04-21T10:03:15.728Z,5488.00
2019-04-21T10:04:12.077Z,5516.00
2019-04-21T10:05:12.294Z,5580.00
2019-04-21T10:06:11.561Z,5544.00
2019-04-21T10:07:23.597Z,5540.00
2019-04-21T10:08:12.572Z,5580.00
2019-04-21T10:09:14.419Z,5532.00
2019-04-21T10:10:12.888Z,5400.00
2019-04-21T10:11:11.886Z,5444.00
2019-04-21T10:12:11.864Z,5368.00
2019-04-21T10:13:10.932Z,5408.00
2019-04-21T10:14:11.735Z,5496.00
2019-04-21T10:15:10.964Z,5632.00
2019-04-21T10:16:10.912Z,5636.00
2019-04-21T10:17:11.027Z,5496.00
2019-04-21T10:18:10.935Z,5572.00
2019-04-21T10:19:11.219Z,5636.00
2019-04-21T10:20:11.789Z,5632.00
2019-04-21T10:21:10.858Z,5688.00
2019-04-21T10:22:10.831Z,5728.00
2019-04-21T10:23:11.390Z,5792.00
2019-04-21T10:24:10.820Z,5772.00
2019-04-21T10:25:10.809Z,5704.00
2019-04-21T10:26:10.789Z,5748.00
2019-04-21T10:27:12.888Z,5764.00
2019-04-21T10:28:11.012Z,5756.00
2019-04-21T10:29:17.001Z,5760.00
2019-04-21T10:30:12.116Z,5680.00
2019-04-21T10:31:11.021Z,5612.00
2019-04-21T10:32:11.348Z,5588.00
2019-04-21T10:33:10.717Z,5532.00
2019-04-21T10:34:11.514Z,5456.00
2019-04-21T10:35:10.996Z,5480.00
2019-04-21T10:36:11.042Z,5512.00
2019-04-21T10:37:11.214Z,5532.00
2019-04-21T10:38:19.818Z,5488.00
2019-04-21T10:39:11.722Z,5416.00
2019-04-21T10:40:11.757Z,5348.00
2019-04-21T10:41:11.738Z,5396.00
2019-04-21T10:42:11.302Z,5332.00
2019-04-21T10:43:13.462Z,5316.00
2019-04-21T10:44:11.439Z,5312.00
2019-04-21T10:45:10.888Z,5304.00
2019-04-21T10:46:10.816Z,5304.00
2019-04-21T10:47:10.962Z,5252.00
2019-04-21T10:48:10.912Z,5216.00
2019-04-21T10:49:10.831Z,5220.00
2019-04-21T10:50:10.890Z,5200.00
2019-04-21T10:51:10.765Z,5180.00
2019-04-21T10:52:10.952Z,5132.00
2019-04-21T10:53:11.142Z,5108.00
2019-04-21T10:54:11.663Z,5112.00
2019-04-21T10:55:30.973Z,5080.00
2019-04-21T10:56:21.124Z,5056.00
2019-04-21T10:57:12.500Z,5036.00
2019-04-21T10:58:10.816Z,5044.00
2019-04-21T10:59:10.429Z,4976.00
2019-04-21T11:00:12.045Z,4920.00
2019-04-21T11:01:10.706Z,4880.00
2019-04-21T11:02:10.636Z,4828.00
2019-04-21T11:03:10.901Z,4804.00
2019-04-21T11:04:17.015Z,4800.00
2019-04-21T11:05:12.500Z,4800.00
2019-04-21T11:06:10.639Z,4780.00
2019-04-21T11:07:14.534Z,4736.00
2019-04-21T11:08:22.616Z,4704.00
2019-04-21T11:09:11.325Z,4664.00
2019-04-21T11:10:11.633Z,4636.00
2019-04-21T11:11:10.315Z,4644.00
2019-04-21T11:12:10.338Z,4624.00
2019-04-21T11:13:10.428Z,4620.00
2019-04-21T11:14:10.590Z,4588.00
2019-04-21T11:15:11.444Z,4560.00
2019-04-21T11:16:10.964Z,4556.00
2019-04-21T11:17:10.273Z,4556.00
2019-04-21T11:18:10.299Z,4552.00
2019-04-21T11:19:11.631Z,4524.00
2019-04-21T11:20:10.835Z,4460.00
2019-04-21T11:21:11.198Z,4412.00
2019-04-21T11:22:10.467Z,4408.00
2019-04-21T11:23:10.223Z,4388.00
2019-04-21T11:24:10.327Z,4360.00
2019-04-21T11:25:11.192Z,4348.00
2019-04-21T11:26:10.160Z,4344.00
2019-04-21T11:27:10.932Z,4340.00
2019-04-21T11:28:11.164Z,4320.00
2019-04-21T11:29:10.809Z,4304.00
2019-04-21T11:30:11.655Z,4284.00
2019-04-21T11:31:11.105Z,4268.00
2019-04-21T11:32:10.098Z,4256.00
2019-04-21T11:33:11.244Z,4232.00
2019-04-21T11:34:11.214Z,4216.00
2019-04-21T11:35:10.047Z,4204.00
2019-04-21T11:36:11.164Z,4216.00
2019-04-21T11:37:10.290Z,4208.00
2019-04-21T11:38:16.945Z,4200.00
2019-04-21T11:39:23.597Z,4188.00
2019-04-21T11:40:14.964Z,4176.00
2019-04-21T11:41:11.950Z,4152.00
2019-04-21T11:42:10.113Z,4136.00
2019-04-21T11:43:09.965Z,4112.00
2019-04-21T11:44:09.955Z,4080.00
2019-04-21T11:45:10.510Z,4060.00
2019-04-21T11:46:10.827Z,4048.00
2019-04-21T11:47:10.265Z,4024.00
2019-04-21T11:48:10.469Z,4016.00
2019-04-21T11:49:10.386Z,4004.00
2019-04-21T11:50:10.887Z,4000.00
2019-04-21T11:51:11.028Z,3984.00
2019-04-21T11:52:11.223Z,3980.00
2019-04-21T11:53:10.650Z,3968.00
2019-04-21T11:54:10.843Z,3960.00
2019-04-21T11:55:11.010Z,3952.00
2019-04-21T11:56:09.831Z,3960.00
2019-04-21T11:57:16.050Z,3956.00
2019-04-21T11:58:11.902Z,3968.00
2019-04-21T11:59:10.062Z,3968.00
2019-04-21T12:00:09.790Z,3960.00
2019-04-21T12:01:09.771Z,3952.00
2019-04-21T12:02:09.824Z,3940.00
2019-04-21T12:03:12.395Z,3928.00
2019-04-21T12:04:11.735Z,3904.00
2019-04-21T12:05:09.787Z,3880.00
2019-04-21T12:06:11.060Z,3868.00
2019-04-21T12:07:09.718Z,3848.00
2019-04-21T12:08:21.198Z,3832.00
2019-04-21T12:09:11.764Z,3820.00
2019-04-21T12:10:09.677Z,3816.00
2019-04-21T12:11:09.695Z,3796.00
2019-04-21T12:12:09.660Z,3788.00
2019-04-21T12:13:10.080Z,3780.00
2019-04-21T12:14:09.980Z,3772.00
2019-04-21T12:15:11.237Z,3760.00
2019-04-21T12:16:10.660Z,3744.00
2019-04-21T12:17:10.038Z,3736.00
2019-04-21T12:18:10.044Z,3724.00
2019-04-21T12:19:09.597Z,3708.00
2019-04-21T12:20:10.637Z,3700.00
2019-04-21T12:21:09.562Z,3684.00
2019-04-21T12:22:18.213Z,3680.00
2019-04-21T12:23:10.537Z,3672.00
2019-04-21T12:24:09.545Z,3668.00
2019-04-21T12:25:09.526Z,3672.00
2019-04-21T12:26:09.513Z,3668.00
2019-04-21T12:27:09.821Z,3664.00
2019-04-21T12:28:10.030Z,3652.00
2019-04-21T12:29:10.067Z,3644.00
2019-04-21T12:30:09.584Z,3632.00
2019-04-21T12:31:09.685Z,3628.00
2019-04-21T12:32:09.763Z,3616.00
2019-04-21T12:33:09.876Z,3608.00
2019-04-21T12:34:09.866Z,3604.00
2019-04-21T12:35:10.071Z,3596.00
2019-04-21T12:36:09.536Z,3592.00
2019-04-21T12:37:10.668Z,3588.00
2019-04-21T12:38:09.378Z,3576.00
2019-04-21T12:39:10.702Z,3568.00
2019-04-21T12:40:10.512Z,3552.00
2019-04-21T12:41:10.676Z,3548.00
2019-04-21T12:42:09.346Z,3536.00
2019-04-21T12:43:10.480Z,3524.00
2019-04-21T12:44:10.724Z,3516.00
2019-04-21T12:45:09.786Z,3504.00
2019-04-21T12:46:09.724Z,3496.00
2019-04-21T12:47:10.066Z,3492.00
2019-04-21T12:48:10.452Z,3472.00
2019-04-21T12:49:09.775Z,3460.00
2019-04-21T12:50:09.253Z,3452.00
2019-04-21T12:51:10.141Z,3448.00
2019-04-21T12:52:09.418Z,3436.00
2019-04-21T12:53:09.538Z,3424.00
2019-04-21T12:54:09.849Z,3420.00
2019-04-21T12:55:09.503Z,3408.00
2019-04-21T12:56:09.492Z,3408.00
2019-04-21T12:57:09.658Z,3404.00
2019-04-21T12:58:09.167Z,3400.00
2019-04-21T12:59:10.017Z,3388.00
2019-04-21T13:00:09.156Z,3380.00
2019-04-21T13:01:09.366Z,3372.00
2019-04-21T13:02:09.590Z,3372.00
2019-04-21T13:03:09.912Z,3368.00
2019-04-21T13:04:10.132Z,3360.00
2019-04-21T13:05:09.506Z,3352.00
2019-04-21T13:06:09.968Z,3348.00
2019-04-21T13:07:09.821Z,3348.00
2019-04-21T13:08:09.302Z,3344.00
2019-04-21T13:09:12.362Z,3340.00
2019-04-21T13:10:10.507Z,3332.00
2019-04-21T13:11:09.556Z,3328.00
2019-04-21T13:12:09.048Z,3328.00
2019-04-21T13:13:10.061Z,3316.00
2019-04-21T13:14:08.980Z,3312.00
2019-04-21T13:15:08.978Z,3300.00
2019-04-21T13:16:09.652Z,3296.00
2019-04-21T13:17:09.847Z,3288.00
2019-04-21T13:18:10.095Z,3280.00
2019-04-21T13:19:09.339Z,3268.00
2019-04-21T13:20:09.547Z,3272.00
2019-04-21T13:21:09.910Z,3260.00
2019-04-21T13:22:09.904Z,3252.00
2019-04-21T13:23:10.066Z,3252.00
2019-04-21T13:24:08.895Z,3248.00
2019-04-21T13:25:09.734Z,3244.00
2019-04-21T13:26:09.747Z,3236.00
2019-04-21T13:27:09.455Z,3228.00
2019-04-21T13:28:08.845Z,3224.00
2019-04-21T13:29:10.147Z,3220.00
2019-04-21T13:30:08.831Z,3208.00
2019-04-21T13:31:08.815Z,3204.00
2019-04-21T13:32:09.361Z,3204.00
2019-04-21T13:33:09.203Z,3204.00
2019-04-21T13:34:10.288Z,3196.00
2019-04-21T13:35:10.719Z,3184.00
2019-04-21T13:36:09.684Z,3176.00